Time;durP1;ratioP1;P1;durP2;ratioP2;P2;SDS_P1;SDS_P2;PMS_P1;PMS_P2;Temp;Humidity;BMP_temperature;BMP_pressure;BME280_temperature;BME280_humidity;BME280_pressure;Samples;Min_cycle;Max_cycle;Signal;HPM_P1;HPM_P2
2023/06/16 00:02:21;;;;;;;4.57;1.37;;;19.30;99.90;;;;;;5051371;28;20666;-75
2023/06/16 00:04:52;;;;;;;7.63;1.40;;;19.50;99.90;;;;;;5033640;28;20671;-78
2023/06/16 00:07:19;;;;;;;3.27;1.23;;;19.60;99.90;;;;;;5050966;28;20301;-77
2023/06/16 00:09:47;;;;;;;6.33;1.30;;;19.90;99.90;;;;;;5051379;28;20270;-79
2023/06/16 00:12:15;;;;;;;4.57;1.20;;;19.90;99.90;;;;;;5050910;28;20204;-80
2023/06/16 00:14:42;;;;;;;6.27;1.33;;;19.70;99.90;;;;;;5051675;28;20595;-80
2023/06/16 00:17:10;;;;;;;9.27;1.20;;;20.40;99.90;;;;;;5051804;28;20249;-77
2023/06/16 00:19:39;;;;;;;3.27;0.90;;;20.60;99.90;;;;;;5042805;28;20224;-78
2023/06/16 00:25:29;;;;;;;6.17;1.50;;;21.30;99.90;;;;;;5050305;28;20664;-78
2023/06/16 00:27:56;;;;;;;4.70;1.43;;;21.00;99.90;;;;;;5051259;28;20271;-74
2023/06/16 00:30:23;;;;;;;6.53;1.60;;;;;;;;;;5033380;28;20188;-77
2023/06/16 00:32:51;;;;;;;4.87;1.57;;;21.60;99.90;;;;;;5050244;28;20181;-77
2023/06/16 00:35:18;;;;;;;4.33;1.30;;;22.10;97.60;;;;;;5051067;28;20274;-77
2023/06/16 00:37:45;;;;;;;4.23;1.33;;;22.30;94.60;;;;;;5051187;28;20191;-77
2023/06/16 00:40:13;;;;;;;4.73;1.40;;;21.90;93.60;;;;;;5050599;28;20689;-76
2023/06/16 00:42:40;;;;;;;2.80;1.17;;;21.00;98.60;;;;;;5051343;28;20189;-77
2023/06/16 00:45:08;;;;;;;3.93;1.53;;;20.60;99.90;;;;;;5055918;28;20183;-76
2023/06/16 00:47:35;;;;;;;2.27;1.20;;;21.50;99.60;;;;;;5057862;28;20250;-73
2023/06/16 00:50:03;;;;;;;2.13;1.20;;;21.40;99.40;;;;;;5059075;28;20184;-77
2023/06/16 00:52:38;;;;;;;4.50;1.10;;;21.50;98.70;;;;;;5057728;28;20274;-74
2023/06/16 00:55:08;;;;;;;4.13;1.60;;;21.70;97.40;;;;;;5039595;28;20190;-74
2023/06/16 00:57:36;;;;;;;4.40;1.10;;;21.90;95.60;;;;;;5058237;28;20244;-76
2023/06/16 01:00:06;;;;;;;5.90;1.20;;;21.80;95.80;;;;;;5048613;28;20599;-75
2023/06/16 01:02:36;;;;;;;2.53;0.80;;;22.00;93.30;;;;;;5048442;28;20242;-75
2023/06/16 01:05:08;;;;;;;7.20;1.20;;;21.60;93.90;;;;;;5046244;28;20185;-69
2023/06/16 01:08:03;;;;;;;1.83;0.97;;;21.50;95.20;;;;;;5048650;28;20200;-75
2023/06/16 01:10:55;;;;;;;2.93;1.13;;;21.80;95.40;;;;;;5038315;28;20245;-76
2023/06/16 01:13:29;;;;;;;3.97;1.00;;;22.10;94.60;;;;;;5050891;28;20177;-75
2023/06/16 01:16:00;;;;;;;4.57;0.93;;;22.40;92.70;;;;;;5049274;28;20682;-73
2023/06/16 01:18:28;;;;;;;1.13;0.70;;;22.70;91.00;;;;;;5055147;28;20216;-75
2023/06/16 01:21:08;;;;;;;4.23;1.07;;;22.70;90.90;;;;;;5067416;28;20192;-75
2023/06/16 01:24:09;;;;;;;2.63;0.90;;;22.20;90.90;;;;;;5072933;28;20267;-72
2023/06/16 01:26:40;;;;;;;2.80;1.03;;;22.10;92.00;;;;;;5044236;28;20297;-76
2023/06/16 01:29:10;;;;;;;5.37;1.40;;;22.50;92.70;;;;;;5068050;28;20212;-75
2023/06/16 01:31:41;;;;;;;2.77;1.00;;;22.50;91.40;;;;;;5053217;28;20262;-74
2023/06/16 01:34:11;;;;;;;1.30;0.63;;;21.90;90.60;;;;;;5068797;28;20247;-77
2023/06/16 01:36:40;;;;;;;6.83;1.10;;;22.10;91.50;;;;;;5070578;28;20176;-75
2023/06/16 01:39:10;;;;;;;5.13;1.10;;;22.40;93.20;;;;;;5066586;28;20173;-74
2023/06/16 01:41:38;;;;;;;2.57;1.00;;;22.90;90.70;;;;;;5063348;28;20231;-75
2023/06/16 01:44:06;;;;;;;2.77;0.77;;;23.10;84.90;;;;;;5067772;28;20180;-75
2023/06/16 01:46:35;;;;;;;2.07;0.90;;;22.50;88.50;;;;;;5066032;28;20220;-76
2023/06/16 01:49:03;;;;;;;7.50;0.97;;;22.30;92.30;;;;;;5049896;28;20544;-74
2023/06/16 01:51:30;;;;;;;3.00;0.80;;;22.20;90.40;;;;;;5068182;28;20190;-74
2023/06/16 01:53:58;;;;;;;1.70;0.80;;;22.00;91.20;;;;;;5070896;28;20211;-70
2023/06/16 01:56:28;;;;;;;7.10;1.00;;;21.90;91.60;;;;;;5063663;28;20181;-72
2023/06/16 01:58:56;;;;;;;3.50;0.87;;;22.10;92.20;;;;;;5063840;28;20191;-72
2023/06/16 02:01:42;;;;;;;4.23;1.13;;;21.80;92.50;;;;;;5063877;28;20677;-75
2023/06/16 02:04:17;;;;;;;2.27;1.20;;;22.10;94.60;;;;;;5064973;28;20191;-74
2023/06/16 02:07:03;;;;;;;5.83;1.60;;;22.30;92.30;;;;;;5044393;28;20206;-70
2023/06/16 02:09:31;;;;;;;4.27;1.60;;;22.80;91.90;;;;;;5064691;28;20276;-78
2023/06/16 02:12:00;;;;;;;4.30;1.10;;;22.40;91.70;;;;;;5065773;28;20187;-74
2023/06/16 02:14:28;;;;;;;4.17;1.27;;;22.80;90.80;;;;;;5064491;28;20180;-75
2023/06/16 02:16:56;;;;;;;4.17;1.00;;;22.40;88.80;;;;;;5062304;28;20260;-76
2023/06/16 02:19:23;;;;;;;3.70;1.17;;;22.70;91.80;;;;;;5064856;28;20670;-72
2023/06/16 02:21:51;;;;;;;5.57;1.07;;;23.00;87.70;;;;;;5066681;28;20532;-74
2023/06/16 02:24:18;;;;;;;2.43;0.93;;;23.20;85.00;;;;;;5064905;28;20186;-74
2023/06/16 02:26:45;;;;;;;3.30;1.00;;;23.40;86.10;;;;;;5063717;28;20263;-74
2023/06/16 02:29:13;;;;;;;6.93;1.10;;;23.40;83.70;;;;;;5066580;28;20182;-76
2023/06/16 02:31:40;;;;;;;2.50;0.80;;;23.30;83.30;;;;;;5064079;28;20180;-72
2023/06/16 02:34:07;;;;;;;5.07;1.27;;;23.10;82.50;;;;;;5069858;28;20183;-71
2023/06/16 02:36:36;;;;;;;4.97;1.00;;;22.70;83.40;;;;;;5070484;28;20184;-74
2023/06/16 02:39:04;;;;;;;4.30;0.90;;;23.00;87.70;;;;;;5044056;28;20175;-76
2023/06/16 02:41:32;;;;;;;3.93;1.73;;;23.30;80.20;;;;;;5066345;28;20190;-75
2023/06/16 02:44:00;;;;;;;2.27;0.90;;;23.20;83.10;;;;;;5063446;28;20545;-74
2023/06/16 02:46:27;;;;;;;2.03;1.30;;;23.50;82.60;;;;;;5067900;28;20223;-71
2023/06/16 02:48:54;;;;;;;4.10;1.00;;;22.90;80.70;;;;;;5071512;28;20259;-71
2023/06/16 02:51:22;;;;;;;3.17;1.20;;;23.20;82.40;;;;;;5070683;28;20184;-73
2023/06/16 02:53:50;;;;;;;6.73;1.10;;;23.40;81.90;;;;;;5070780;28;20211;-71
2023/06/16 02:56:17;;;;;;;3.20;1.27;;;23.20;78.50;;;;;;5071106;28;20237;-71
2023/06/16 02:58:45;;;;;;;2.80;0.90;;;23.00;77.20;;;;;;5071647;28;20603;-71
2023/06/16 03:01:12;;;;;;;2.30;0.80;;;23.60;76.60;;;;;;5072747;28;20204;-71
2023/06/16 03:03:39;;;;;;;3.17;1.10;;;23.30;72.00;;;;;;5072133;28;20175;-71
2023/06/16 03:06:07;;;;;;;4.67;1.00;;;23.10;70.50;;;;;;5070825;28;20665;-70
2023/06/16 03:08:35;;;;;;;2.70;0.80;;;23.20;72.50;;;;;;5070036;28;20182;-71
2023/06/16 03:11:03;;;;;;;2.93;1.00;;;23.50;69.20;;;;;;5087852;28;20254;-71
2023/06/16 03:13:30;;;;;;;2.30;0.83;;;23.10;63.70;;;;;;5082715;28;20728;-71
2023/06/16 03:15:57;;;;;;;3.97;0.83;;;23.00;64.20;;;;;;5070489;28;20176;-72
2023/06/16 03:18:25;;;;;;;2.87;0.80;;;23.30;62.70;;;;;;5071675;28;20276;-72
2023/06/16 03:20:53;;;;;;;3.23;0.80;;;23.50;63.90;;;;;;5070282;28;20183;-73
2023/06/16 03:23:20;;;;;;;2.70;0.77;;;23.50;59.80;;;;;;5052045;28;20650;-72
2023/06/16 03:25:48;;;;;;;1.90;0.67;;;23.90;61.30;;;;;;5063806;28;20208;-72
2023/06/16 03:28:15;;;;;;;2.73;0.80;;;23.60;58.80;;;;;;5072372;28;20180;-73
2023/06/16 03:30:44;;;;;;;2.90;0.63;;;23.50;59.80;;;;;;5070126;28;20238;-72
2023/06/16 03:33:11;;;;;;;4.60;0.83;;;23.30;58.80;;;;;;5052440;28;20216;-71
2023/06/16 03:35:39;;;;;;;3.00;0.67;;;23.50;57.20;;;;;;5062543;28;20187;-74
2023/06/16 03:38:06;;;;;;;3.10;0.80;;;23.60;58.90;;;;;;5071797;28;20656;-71
2023/06/16 03:40:34;;;;;;;2.80;0.83;;;23.40;58.10;;;;;;5072364;28;20598;-72
2023/06/16 03:43:02;;;;;;;2.03;0.83;;;23.20;58.40;;;;;;5067011;28;20192;-72
2023/06/16 03:45:30;;;;;;;2.93;1.00;;;23.50;58.80;;;;;;5059711;28;20263;-71
2023/06/16 03:47:57;;;;;;;1.53;0.60;;;23.60;55.70;;;;;;5072157;28;20180;-72
2023/06/16 03:50:25;;;;;;;2.80;0.60;;;23.30;55.90;;;;;;5071913;28;20168;-72
2023/06/16 03:52:52;;;;;;;1.63;0.60;;;23.20;54.50;;;;;;5070805;28;20180;-68
2023/06/16 03:55:20;;;;;;;1.87;0.70;;;23.10;54.50;;;;;;5046260;28;20175;-71
2023/06/16 03:57:47;;;;;;;2.53;0.80;;;22.80;57.90;;;;;;5072010;28;20269;-70
2023/06/16 04:00:15;;;;;;;2.50;0.90;;;22.90;55.80;;;;;;5071299;28;20191;-71
2023/06/16 04:02:42;;;;;;;2.40;0.70;;;23.10;56.20;;;;;;5071833;28;20175;-70
2023/06/16 04:05:10;;;;;;;1.80;0.77;;;23.20;57.30;;;;;;5071479;28;20261;-71
2023/06/16 04:07:37;;;;;;;3.10;0.80;;;23.30;55.70;;;;;;5071126;28;20272;-71
2023/06/16 04:10:05;;;;;;;4.67;0.70;;;23.30;56.40;;;;;;5071656;28;20310;-74
2023/06/16 04:12:32;;;;;;;0.90;0.60;;;23.30;55.00;;;;;;5052102;28;20181;-70
2023/06/16 04:15:00;;;;;;;1.43;0.53;;;23.20;53.00;;;;;;5052035;28;20547;-72
2023/06/16 04:17:27;;;;;;;4.43;0.93;;;23.10;54.10;;;;;;5055760;28;20216;-73
2023/06/16 04:19:55;;;;;;;1.53;0.80;;;23.00;54.30;;;;;;5052563;28;20231;-69
2023/06/16 04:22:22;;;;;;;2.07;0.90;;;22.80;53.80;;;;;;5053469;28;20200;-70
2023/06/16 04:24:54;;;;;;;1.83;0.73;;;22.70;57.10;;;;;;5071009;28;20292;-71
2023/06/16 04:27:23;;;;;;;4.23;0.93;;;22.70;55.70;;;;;;5054973;28;20216;-71
2023/06/16 04:29:51;;;;;;;3.57;0.90;;;22.70;57.60;;;;;;5067697;28;20184;-72
2023/06/16 04:32:18;;;;;;;1.67;0.77;;;22.90;58.30;;;;;;5069485;28;20260;-70
2023/06/16 04:34:46;;;;;;;4.33;0.70;;;23.00;56.30;;;;;;5071058;28;20188;-70
2023/06/16 04:37:14;;;;;;;5.20;0.90;;;22.80;57.00;;;;;;5070958;28;20273;-70
2023/06/16 04:39:41;;;;;;;2.23;0.70;;;22.50;57.10;;;;;;5071410;28;20179;-72
2023/06/16 04:42:09;;;;;;;2.30;0.60;;;22.70;57.20;;;;;;5071264;28;20180;-73
2023/06/16 04:44:39;;;;;;;3.97;0.70;;;22.90;57.80;;;;;;5056584;28;20680;-72
2023/06/16 04:47:09;;;;;;;1.57;0.70;;;23.00;56.90;;;;;;5050892;28;20228;-71
2023/06/16 04:49:36;;;;;;;2.27;0.70;;;23.10;56.70;;;;;;5051013;28;20188;-71
2023/06/16 04:52:06;;;;;;;5.23;1.10;;;22.90;56.60;;;;;;5038208;28;20187;-70
2023/06/16 04:54:34;;;;;;;3.27;0.90;;;22.90;58.50;;;;;;5071327;28;20424;-70
2023/06/16 04:57:01;;;;;;;2.47;0.53;;;22.90;56.70;;;;;;5070844;28;20592;-76
2023/06/16 04:59:31;;;;;;;2.43;0.80;;;23.20;58.10;;;;;;5070727;28;20169;-75
2023/06/16 05:02:00;;;;;;;4.93;0.90;;;23.20;54.80;;;;;;5067882;28;20234;-77
2023/06/16 05:04:27;;;;;;;4.37;0.80;;;22.60;54.50;;;;;;5059437;28;20188;-77
2023/06/16 05:06:58;;;;;;;3.40;0.60;;;22.30;55.40;;;;;;5070147;28;20215;-76
2023/06/16 05:09:26;;;;;;;1.37;0.80;;;22.20;57.50;;;;;;5071355;28;20180;-77
2023/06/16 05:11:53;;;;;;;2.67;0.90;;;22.30;57.70;;;;;;5071124;28;20184;-75
2023/06/16 05:14:21;;;;;;;3.43;0.87;;;22.30;79.90;;;;;;5058201;28;20233;-75
2023/06/16 05:16:48;;;;;;;2.83;0.70;;;22.10;65.40;;;;;;5052678;28;20185;-72
2023/06/16 05:19:16;;;;;;;2.10;1.00;;;22.10;67.70;;;;;;5052985;28;20311;-75
2023/06/16 05:21:43;;;;;;;1.43;0.50;;;21.80;67.60;;;;;;5070447;28;20220;-76
2023/06/16 05:24:11;;;;;;;3.13;1.10;;;21.70;71.10;;;;;;5070987;28;20315;-71
2023/06/16 05:26:38;;;;;;;2.57;0.90;;;21.30;57.40;;;;;;5071069;28;20239;-77
2023/06/16 05:29:05;;;;;;;3.23;0.80;;;21.10;58.10;;;;;;5050266;28;20192;-77
2023/06/16 05:31:33;;;;;;;2.00;0.80;;;21.10;60.20;;;;;;5053998;28;20543;-77
2023/06/16 05:34:01;;;;;;;1.67;0.80;;;21.00;63.00;;;;;;5065450;28;20679;-78
2023/06/16 05:36:30;;;;;;;4.10;0.70;;;20.80;62.70;;;;;;5074023;28;20180;-75
2023/06/16 05:38:58;;;;;;;2.67;0.83;;;20.50;65.90;;;;;;5074553;28;20176;-73
2023/06/16 05:41:26;;;;;;;5.43;0.90;;;20.30;68.30;;;;;;5074537;28;20286;-76
2023/06/16 05:43:56;;;;;;;3.10;0.90;;;20.10;70.10;;;;;;5073986;28;20172;-76
2023/06/16 05:46:24;;;;;;;2.50;0.90;;;20.00;89.20;;;;;;5074161;28;20203;-74
2023/06/16 05:48:52;;;;;;;1.57;0.90;;;19.80;88.90;;;;;;5074332;28;20176;-74
2023/06/16 05:51:19;;;;;;;2.37;0.97;;;19.70;88.70;;;;;;5077452;28;20195;-76
2023/06/16 05:53:47;;;;;;;3.27;1.20;;;19.50;91.10;;;;;;5073862;28;20190;-71
2023/06/16 05:56:14;;;;;;;3.17;1.37;;;19.40;95.90;;;;;;5074058;28;20179;-73
2023/06/16 05:58:41;;;;;;;3.60;1.03;;;19.30;96.90;;;;;;5067098;28;20235;-75
2023/06/16 06:01:11;;;;;;;3.57;0.87;;;19.20;95.90;;;;;;5067632;28;20211;-73
2023/06/16 06:03:45;;;;;;;5.20;1.00;;;19.20;96.60;;;;;;5074047;28;20649;-77
2023/06/16 06:06:12;;;;;;;1.97;0.90;;;19.00;99.70;;;;;;5073430;28;20256;-74
2023/06/16 06:08:40;;;;;;;4.67;0.93;;;18.90;99.90;;;;;;5073426;28;20163;-75
2023/06/16 06:11:08;;;;;;;3.13;0.90;;;18.90;99.90;;;;;;5074010;28;20176;-74
2023/06/16 06:13:35;;;;;;;2.13;0.90;;;18.70;99.90;;;;;;5073427;28;20172;-76
2023/06/16 06:16:03;;;;;;;3.43;1.20;;;18.60;99.90;;;;;;5073751;28;20570;-77
2023/06/16 06:18:31;;;;;;;1.73;1.10;;;18.50;99.90;;;;;;5068099;28;20247;-76
2023/06/16 06:20:58;;;;;;;5.17;1.93;;;18.40;99.90;;;;;;5053413;28;20268;-74
2023/06/16 06:23:26;;;;;;;1.83;1.20;;;18.50;99.90;;;;;;5053710;28;20178;-75
2023/06/16 06:25:53;;;;;;;2.37;1.00;;;18.40;99.90;;;;;;5053305;28;20200;-71
2023/06/16 06:28:23;;;;;;;7.33;1.50;;;18.30;99.90;;;;;;5066929;28;20185;-74
2023/06/16 06:30:50;;;;;;;1.93;1.00;;;18.20;99.90;;;;;;5071799;28;20228;-74
2023/06/16 06:33:17;;;;;;;3.23;1.37;;;18.00;99.90;;;;;;5073338;28;20536;-72
2023/06/16 06:35:45;;;;;;;4.03;1.43;;;17.80;99.90;;;;;;5066234;28;20174;-75
2023/06/16 06:38:12;;;;;;;2.30;1.30;;;17.80;99.90;;;;;;5055575;28;20227;-75
2023/06/16 06:40:40;;;;;;;2.67;1.20;;;17.90;99.90;;;;;;5073795;28;20180;-72
2023/06/16 06:43:17;;;;;;;2.13;1.10;;;17.70;99.90;;;;;;5073100;28;20186;-74
2023/06/16 06:45:46;;;;;;;3.37;1.37;;;17.60;99.90;;;;;;5073386;28;20192;-73
2023/06/16 06:48:13;;;;;;;4.90;1.30;;;17.30;99.90;;;;;;5072332;28;20215;-72
2023/06/16 06:50:40;;;;;;;19.27;2.83;;;17.20;99.90;;;;;;5072699;28;20579;-73
2023/06/16 06:53:08;;;;;;;12.03;2.60;;;17.00;99.90;;;;;;5073186;28;20207;-76
2023/06/16 06:55:35;;;;;;;5.23;1.60;;;16.80;99.90;;;;;;5060387;28;20601;-76
2023/06/16 06:58:03;;;;;;;5.10;1.47;;;16.60;99.90;;;;;;5053705;28;20172;-74
2023/06/16 07:00:30;;;;;;;7.70;1.30;;;16.40;99.90;;;;;;5074418;28;20229;-73
2023/06/16 07:02:58;;;;;;;2.97;1.53;;;16.20;99.90;;;;;;5071033;28;20198;-75
2023/06/16 07:05:25;;;;;;;5.90;1.53;;;16.00;99.90;;;;;;5065192;28;20271;-74
2023/06/16 07:07:53;;;;;;;6.87;1.50;;;15.80;99.90;;;;;;5052764;28;20258;-74
2023/06/16 07:10:20;;;;;;;5.87;1.30;;;15.70;99.90;;;;;;5057053;28;20279;-77
2023/06/16 07:12:47;;;;;;;3.93;1.40;;;15.60;99.90;;;;;;5052349;28;20267;-74
2023/06/16 07:15:16;;;;;;;3.93;1.20;;;15.30;99.90;;;;;;5052669;28;20584;-77
2023/06/16 07:17:43;;;;;;;5.03;1.80;;;15.20;99.90;;;;;;5046179;28;20188;-76
2023/06/16 07:20:11;;;;;;;4.57;1.73;;;15.10;99.90;;;;;;5061270;28;20181;-77
2023/06/16 07:22:38;;;;;;;7.27;1.90;;;15.10;99.90;;;;;;5063352;28;20203;-71
2023/06/16 07:25:06;;;;;;;7.50;1.90;;;15.10;99.90;;;;;;5064037;28;20179;-75
2023/06/16 07:27:34;;;;;;;6.40;1.97;;;15.10;99.90;;;;;;5071994;28;20853;-78
2023/06/16 07:30:05;;;;;;;5.33;2.20;;;15.10;99.90;;;;;;5072045;28;20207;-75
2023/06/16 07:32:32;;;;;;;5.77;2.23;;;15.10;99.90;;;;;;5072300;28;20183;-77
2023/06/16 07:35:00;;;;;;;7.13;1.97;;;14.90;99.90;;;;;;5071944;28;20176;-77
2023/06/16 07:37:27;;;;;;;5.03;2.17;;;14.80;99.90;;;;;;5072181;28;20576;-81
2023/06/16 07:39:55;;;;;;;5.87;2.50;;;14.70;99.90;;;;;;5070543;28;20580;-79
2023/06/16 07:42:22;;;;;;;7.47;2.07;;;14.60;99.90;;;;;;5082882;28;20191;-72
2023/06/16 07:44:50;;;;;;;3.20;1.80;;;14.40;99.90;;;;;;5062329;28;20172;-77
2023/06/16 07:47:17;;;;;;;4.03;1.90;;;14.40;99.90;;;;;;5061933;28;20208;-74
2023/06/16 07:49:44;;;;;;;7.20;1.80;;;14.30;99.90;;;;;;5061221;28;20176;-76
2023/06/16 07:52:13;;;;;;;2.97;1.50;;;14.10;99.90;;;;;;5066455;28;20548;-76
2023/06/16 07:54:41;;;;;;;5.57;2.03;;;13.90;99.90;;;;;;5063778;28;20175;-74
2023/06/16 07:57:08;;;;;;;5.63;1.67;;;13.80;99.90;;;;;;5082706;28;20213;-79
2023/06/16 07:59:36;;;;;;;5.87;2.00;;;13.70;99.90;;;;;;5083737;28;20491;-75
2023/06/16 08:02:03;;;;;;;5.43;1.97;;;13.70;99.90;;;;;;5071456;28;20191;-78
2023/06/16 08:04:31;;;;;;;3.70;2.37;;;13.60;99.90;;;;;;5059912;28;20604;-76
2023/06/16 08:06:59;;;;;;;4.37;2.50;;;13.60;99.90;;;;;;5060545;28;20204;-69
2023/06/16 08:09:27;;;;;;;8.43;4.00;;;13.60;99.90;;;;;;5060745;28;20208;-75
2023/06/16 08:11:54;;;;;;;12.53;5.90;;;13.50;99.90;;;;;;5061981;28;20183;-76
2023/06/16 08:14:22;;;;;;;19.40;9.07;;;13.50;99.90;;;;;;5061294;28;20186;-77
2023/06/16 08:16:50;;;;;;;17.83;9.17;;;13.50;99.90;;;;;;5055275;28;20219;-76
2023/06/16 08:19:17;;;;;;;22.07;10.07;;;13.40;99.90;;;;;;5051105;28;20235;-71
2023/06/16 08:21:44;;;;;;;23.03;10.50;;;13.40;99.90;;;;;;5051710;28;20676;-76
2023/06/16 08:24:12;;;;;;;13.57;5.67;;;13.30;99.90;;;;;;5051197;28;20646;-71
2023/06/16 08:26:39;;;;;;;14.20;6.53;;;13.20;99.90;;;;;;5050690;28;20587;-71
2023/06/16 08:29:07;;;;;;;12.73;4.87;;;13.00;99.90;;;;;;5051151;28;20184;-77
2023/06/16 08:31:34;;;;;;;14.53;4.53;;;13.00;99.90;;;;;;5051215;28;20195;-77
2023/06/16 08:34:02;;;;;;;11.93;4.77;;;12.80;99.90;;;;;;5050307;28;20183;-69
2023/06/16 08:36:29;;;;;;;10.57;4.60;;;12.80;99.90;;;;;;5051057;28;20653;-76
2023/06/16 08:38:57;;;;;;;11.83;4.90;;;12.70;99.90;;;;;;5051188;28;20200;-74
2023/06/16 08:41:25;;;;;;;15.83;5.27;;;12.70;99.90;;;;;;5032665;28;20661;-71
2023/06/16 08:43:54;;;;;;;13.67;5.83;;;12.60;99.90;;;;;;5051190;28;20721;-77
2023/06/16 08:46:23;;;;;;;10.87;5.30;;;12.50;99.90;;;;;;5051338;28;20199;-75
2023/06/16 08:48:51;;;;;;;11.57;5.17;;;12.40;99.90;;;;;;5050036;28;20343;-75
2023/06/16 08:51:25;;;;;;;14.70;5.00;;;12.30;99.90;;;;;;5050826;28;20180;-76
2023/06/16 08:54:00;;;;;;;13.40;5.20;;;12.30;99.90;;;;;;5056208;28;20649;-76
2023/06/16 08:56:32;;;;;;;9.83;5.03;;;12.20;99.90;;;;;;5061452;28;20255;-70
2023/06/16 08:59:03;;;;;;;11.90;6.07;;;12.10;99.90;;;;;;5041449;28;20199;-74
2023/06/16 09:01:33;;;;;;;15.03;5.57;;;12.10;99.90;;;;;;5062337;28;20175;-75
2023/06/16 09:04:01;;;;;;;11.67;5.80;;;12.00;99.90;;;;;;5059116;28;20202;-77
2023/06/16 09:06:29;;;;;;;16.80;6.60;;;12.00;99.90;;;;;;5064074;28;20200;-75
2023/06/16 09:09:03;;;;;;;8.87;5.53;;;11.90;99.90;;;;;;5068338;28;20175;-71
2023/06/16 09:11:31;;;;;;;20.50;10.20;;;11.90;99.90;;;;;;5059162;28;20413;-77
2023/06/16 09:14:14;;;;;;;14.77;7.93;;;11.80;99.90;;;;;;5059777;28;20214;-79
2023/06/16 09:16:42;;;;;;;17.30;8.77;;;11.80;99.90;;;;;;5076227;28;20202;-79
2023/06/16 09:19:12;;;;;;;16.97;8.47;;;11.70;99.90;;;;;;5073359;28;20256;-75
2023/06/16 09:21:40;;;;;;;12.73;6.87;;;11.60;99.90;;;;;;5074384;28;20183;-71
2023/06/16 09:24:08;;;;;;;14.00;7.43;;;11.50;99.90;;;;;;5069156;28;20649;-77
2023/06/16 09:26:38;;;;;;;12.53;7.00;;;11.50;99.90;;;;;;5064039;28;20222;-74
2023/06/16 09:29:25;;;;;;;19.47;8.50;;;11.40;99.90;;;;;;5063627;28;20232;-77
2023/06/16 09:32:06;;;;;;;15.93;8.20;;;11.40;99.90;;;;;;5064465;28;20172;-76
2023/06/16 09:34:33;;;;;;;16.53;7.97;;;11.30;99.90;;;;;;5066836;28;20186;-70
2023/06/16 09:37:01;;;;;;;12.67;7.23;;;11.20;99.90;;;;;;5067800;28;20374;-73
2023/06/16 09:39:29;;;;;;;16.20;7.83;;;11.20;99.90;;;;;;5067789;28;20561;-76
2023/06/16 09:41:57;;;;;;;15.93;8.43;;;11.10;99.90;;;;;;5064022;28;20187;-77
2023/06/16 09:44:27;;;;;;;13.93;9.10;;;11.10;99.90;;;;;;5063494;28;20198;-76
2023/06/16 09:46:55;;;;;;;22.17;9.90;;;11.10;99.90;;;;;;5061866;28;20683;-74
2023/06/16 09:49:25;;;;;;;19.13;10.43;;;11.10;99.90;;;;;;5062810;28;20215;-74
2023/06/16 09:51:57;;;;;;;18.20;10.17;;;11.00;99.90;;;;;;5064373;28;20523;-77
2023/06/16 09:54:26;;;;;;;16.57;9.80;;;10.90;99.90;;;;;;5063117;28;20187;-74
2023/06/16 09:56:59;;;;;;;17.77;8.87;;;10.90;99.90;;;;;;5061606;28;20647;-77
2023/06/16 09:59:27;;;;;;;27.07;9.80;;;10.80;99.90;;;;;;5062284;28;20183;-73
2023/06/16 10:01:55;;;;;;;20.27;9.93;;;10.80;99.90;;;;;;5061558;28;20194;-77
2023/06/16 10:04:25;;;;;;;17.30;9.73;;;10.70;99.90;;;;;;5052439;28;20191;-76
2023/06/16 10:07:03;;;;;;;24.13;11.90;;;10.60;99.90;;;;;;5053038;28;20215;-74
2023/06/16 10:09:51;;;;;;;20.83;11.20;;;10.50;99.90;;;;;;5053378;28;20194;-78
2023/06/16 10:12:21;;;;;;;23.60;12.87;;;10.50;99.90;;;;;;5053282;28;20178;-75
2023/06/16 10:14:49;;;;;;;18.53;11.30;;;10.50;99.90;;;;;;5052943;28;20651;-75
2023/06/16 10:17:19;;;;;;;23.27;11.03;;;10.50;99.90;;;;;;5051183;28;20660;-77
2023/06/16 10:19:51;;;;;;;25.33;12.20;;;10.40;99.90;;;;;;5035561;28;20235;-75
2023/06/16 10:22:19;;;;;;;21.40;11.37;;;10.30;99.90;;;;;;5033124;28;20644;-77
2023/06/16 10:24:48;;;;;;;22.40;11.87;;;10.30;99.90;;;;;;5015038;28;20266;-75
2023/06/16 10:27:16;;;;;;;22.30;12.43;;;10.30;99.90;;;;;;5032733;28;20213;-79
2023/06/16 10:29:48;;;;;;;25.03;11.53;;;10.20;99.90;;;;;;5033201;28;20169;-75
2023/06/16 10:32:15;;;;;;;25.37;12.20;;;10.20;99.90;;;;;;5032740;28;20245;-74
2023/06/16 10:34:56;;;;;;;23.20;12.23;;;10.10;99.90;;;;;;5035436;28;20220;-71
2023/06/16 10:37:29;;;;;;;25.37;13.00;;;10.00;99.90;;;;;;5024766;28;20607;-78
2023/06/16 10:40:04;;;;;;;29.30;13.70;;;10.00;99.90;;;;;;5041334;28;20187;-75
2023/06/16 10:42:35;;;;;;;28.63;12.90;;;10.00;99.90;;;;;;5040688;28;20242;-77
2023/06/16 10:45:28;;;;;;;25.10;12.20;;;9.90;99.90;;;;;;5052768;28;20192;-71
2023/06/16 10:48:11;;;;;;;21.20;11.53;;;9.90;99.90;;;;;;5053984;28;20223;-72
2023/06/16 10:50:45;;;;;;;24.43;12.23;;;9.80;99.90;;;;;;5036528;28;20190;-74
2023/06/16 10:53:17;;;;;;;23.43;11.43;;;9.80;99.90;;;;;;5054626;28;20751;-74
2023/06/16 10:55:46;;;;;;;21.50;11.90;;;9.70;99.90;;;;;;5050798;28;20597;-71
2023/06/16 10:58:16;;;;;;;23.70;12.27;;;9.70;99.90;;;;;;5034331;28;20647;-74
2023/06/16 11:01:05;;;;;;;26.57;14.17;;;9.60;99.90;;;;;;5034403;28;20227;-73
2023/06/16 11:03:36;;;;;;;35.53;14.63;;;9.60;99.90;;;;;;5016469;28;20224;-73
2023/06/16 11:06:05;;;;;;;31.93;16.07;;;9.50;99.90;;;;;;5034004;28;20701;-72
2023/06/16 11:08:53;;;;;;;27.37;14.00;;;9.50;99.90;;;;;;5034163;28;20180;-74
2023/06/16 11:11:21;;;;;;;27.57;14.70;;;9.50;99.90;;;;;;5033826;28;20172;-75
2023/06/16 11:13:48;;;;;;;32.40;14.83;;;9.40;99.90;;;;;;5034147;28;20176;-76
2023/06/16 11:16:16;;;;;;;26.27;13.90;;;9.40;99.90;;;;;;5034035;28;20194;-74
2023/06/16 11:18:43;;;;;;;23.80;13.00;;;9.40;99.90;;;;;;5033908;28;20280;-74
2023/06/16 11:21:11;;;;;;;24.47;12.60;;;9.40;99.90;;;;;;5015821;28;20206;-75
2023/06/16 11:23:38;;;;;;;28.23;13.57;;;9.30;99.90;;;;;;5034044;28;20172;-74
2023/06/16 11:26:17;;;;;;;25.03;12.83;;;9.30;99.90;;;;;;5033818;28;20208;-73
2023/06/16 11:28:44;;;;;;;24.57;12.00;;;9.20;99.90;;;;;;5033244;28;20186;-72
2023/06/16 11:31:14;;;;;;;19.57;11.37;;;9.20;99.90;;;;;;5033413;28;20180;-75
2023/06/16 11:33:45;;;;;;;24.40;11.93;;;9.20;99.90;;;;;;5015943;28;20193;-72
2023/06/16 11:36:21;;;;;;;22.63;11.63;;;9.10;99.90;;;;;;5033936;28;20267;-74
2023/06/16 11:38:51;;;;;;;21.03;10.73;;;9.00;99.90;;;;;;5033643;28;20180;-75
2023/06/16 11:41:23;;;;;;;18.47;10.03;;;9.10;99.90;;;;;;5033609;28;20175;-74
2023/06/16 11:43:51;;;;;;;17.53;10.40;;;9.00;99.90;;;;;;5033673;28;20569;-74
2023/06/16 11:46:25;;;;;;;17.20;9.30;;;8.90;99.90;;;;;;5033462;28;20250;-75
2023/06/16 11:48:53;;;;;;;18.37;10.60;;;8.90;99.90;;;;;;5033426;28;20179;-74
2023/06/16 11:51:22;;;;;;;19.00;10.93;;;8.90;99.90;;;;;;5048588;28;20720;-73
2023/06/16 11:53:50;;;;;;;17.60;10.07;;;8.90;99.90;;;;;;5052789;28;20585;-75
2023/06/16 11:56:18;;;;;;;17.23;9.80;;;8.80;99.90;;;;;;5052416;28;20673;-75
2023/06/16 11:58:48;;;;;;;24.23;12.23;;;8.80;99.90;;;;;;5035109;28;20193;-74
2023/06/16 12:01:20;;;;;;;19.57;11.03;;;8.80;99.90;;;;;;5052144;28;20222;-73
2023/06/16 12:03:48;;;;;;;18.23;11.97;;;8.80;99.90;;;;;;5034417;28;20285;-76
2023/06/16 12:06:16;;;;;;;19.03;11.97;;;8.80;99.90;;;;;;5052512;28;20205;-74
2023/06/16 12:08:46;;;;;;;21.40;12.07;;;8.70;99.90;;;;;;5052813;28;20189;-73
2023/06/16 12:11:27;;;;;;;22.87;12.13;;;8.60;99.90;;;;;;5052564;28;20652;-74
2023/06/16 12:13:56;;;;;;;17.10;11.50;;;8.60;99.90;;;;;;5053038;28;20181;-73
2023/06/16 12:16:24;;;;;;;18.27;10.83;;;8.60;99.90;;;;;;5052638;28;20223;-73
2023/06/16 12:18:52;;;;;;;20.13;10.73;;;8.60;99.90;;;;;;5052445;28;20222;-73
2023/06/16 12:21:24;;;;;;;16.87;9.63;;;8.50;99.90;;;;;;5049577;28;20270;-73
2023/06/16 12:23:54;;;;;;;16.47;9.70;;;8.50;99.90;;;;;;5034577;28;20237;-71
2023/06/16 12:26:43;;;;;;;18.63;10.93;;;8.40;99.90;;;;;;5052154;28;20208;-73
2023/06/16 12:29:16;;;;;;;15.07;10.13;;;8.40;99.90;;;;;;5052525;28;20178;-69
2023/06/16 12:31:55;;;;;;;19.37;9.60;;;8.40;99.90;;;;;;5052177;28;20235;-73
2023/06/16 12:34:32;;;;;;;14.87;8.57;;;8.40;99.90;;;;;;5052538;28;20206;-73
2023/06/16 12:37:13;;;;;;;14.93;7.80;;;8.40;99.90;;;;;;5051380;28;20182;-73
2023/06/16 12:39:41;;;;;;;14.63;8.40;;;8.30;99.90;;;;;;5051826;28;20189;-73
2023/06/16 12:42:11;;;;;;;22.07;9.90;;;8.30;99.90;;;;;;5052265;28;20192;-72
2023/06/16 12:44:52;;;;;;;17.33;9.47;;;8.20;99.90;;;;;;5052269;28;20176;-73
2023/06/16 12:47:24;;;;;;;18.67;9.57;;;8.20;99.90;;;;;;5052021;28;20218;-75
2023/06/16 12:49:54;;;;;;;17.93;9.60;;;8.20;99.90;;;;;;5051798;28;20181;-73
2023/06/16 12:52:22;;;;;;;24.33;11.77;;;8.10;99.90;;;;;;5052308;28;20194;-75
2023/06/16 12:54:51;;;;;;;19.77;11.07;;;8.10;99.90;;;;;;5052518;28;20174;-73
2023/06/16 12:57:20;;;;;;;20.90;12.03;;;8.20;99.90;;;;;;5052206;28;20182;-75
2023/06/16 12:59:48;;;;;;;16.73;10.50;;;8.10;99.90;;;;;;5051954;28;20267;-71